createdAt,value
2019-05-25T00:00:52.636Z,15.60
2019-05-25T00:03:21.031Z,15.60
2019-05-25T00:05:49.399Z,15.60
2019-05-25T00:08:17.795Z,15.70
2019-05-25T00:10:46.162Z,15.70
2019-05-25T00:13:14.634Z,15.70
2019-05-25T00:15:43.018Z,15.40
2019-05-25T00:18:11.391Z,15.20
2019-05-25T00:20:39.774Z,15.30
2019-05-25T00:23:08.154Z,15.40
2019-05-25T00:25:36.527Z,15.50
2019-05-25T00:28:04.911Z,15.50
2019-05-25T00:30:33.278Z,15.60
2019-05-25T00:33:01.650Z,15.60
2019-05-25T00:35:29.943Z,15.20
2019-05-25T00:37:58.334Z,15.30
2019-05-25T00:40:26.707Z,15.20
2019-05-25T00:42:55.094Z,15.00
2019-05-25T00:45:23.539Z,15.10
2019-05-25T00:47:51.973Z,15.20
2019-05-25T00:50:20.368Z,15.20
2019-05-25T00:52:48.758Z,15.00
2019-05-25T00:55:17.134Z,15.00
2019-05-25T00:57:45.528Z,15.00
2019-05-25T01:00:13.968Z,15.00
2019-05-25T01:02:42.373Z,15.00
2019-05-25T01:05:11.321Z,15.00
2019-05-25T01:07:39.760Z,15.00
2019-05-25T01:10:08.215Z,15.10
2019-05-25T01:12:36.593Z,15.10
2019-05-25T01:15:06.018Z,15.10
2019-05-25T01:17:34.399Z,15.10
2019-05-25T01:20:02.783Z,15.10
2019-05-25T01:22:31.153Z,15.10
2019-05-25T01:24:59.459Z,15.10
2019-05-25T01:27:29.008Z,15.00
2019-05-25T01:29:57.395Z,15.00
2019-05-25T01:32:25.763Z,14.90
2019-05-25T01:34:54.244Z,14.80
2019-05-25T01:37:22.619Z,14.80
2019-05-25T01:39:51.032Z,14.80
2019-05-25T01:42:19.382Z,14.70
2019-05-25T01:44:47.776Z,14.50
2019-05-25T01:47:16.138Z,14.70
2019-05-25T01:49:44.529Z,14.80
2019-05-25T01:52:12.903Z,14.90
2019-05-25T01:54:41.286Z,15.00
2019-05-25T01:57:09.654Z,14.90
2019-05-25T01:59:38.041Z,14.90
2019-05-25T02:02:06.335Z,15.00
2019-05-25T02:04:34.727Z,14.90
2019-05-25T02:07:03.255Z,14.80
2019-05-25T02:09:31.653Z,14.70
2019-05-25T02:12:00.271Z,14.80
2019-05-25T02:14:28.827Z,14.60
2019-05-25T02:16:57.206Z,14.60
2019-05-25T02:19:25.631Z,14.60
2019-05-25T02:21:53.994Z,14.60
2019-05-25T02:24:22.384Z,14.20
2019-05-25T02:26:50.788Z,14.20
2019-05-25T02:29:19.348Z,14.20
2019-05-25T02:31:47.723Z,14.20
2019-05-25T02:34:16.105Z,14.20
2019-05-25T02:36:44.471Z,14.20
2019-05-25T02:39:12.928Z,14.20
2019-05-25T02:41:41.290Z,14.20
2019-05-25T02:44:09.828Z,14.20
2019-05-25T02:46:38.260Z,14.20
2019-05-25T02:49:06.631Z,14.30
2019-05-25T02:51:35.039Z,14.10
2019-05-25T02:54:03.399Z,13.80
2019-05-25T02:56:31.793Z,13.90
2019-05-25T02:59:00.103Z,13.90
2019-05-25T03:01:28.498Z,14.10
2019-05-25T03:03:56.892Z,14.20
2019-05-25T03:06:25.247Z,14.20
2019-05-25T03:08:53.922Z,14.20
2019-05-25T03:11:22.311Z,14.20
2019-05-25T03:13:50.695Z,14.20
2019-05-25T03:16:19.094Z,14.30
2019-05-25T03:18:47.467Z,14.30
2019-05-25T03:21:15.855Z,14.20
2019-05-25T03:23:44.228Z,14.10
2019-05-25T03:26:12.611Z,14.20
2019-05-25T03:28:40.979Z,14.30
2019-05-25T03:31:09.422Z,14.40
2019-05-25T03:33:37.861Z,14.40
2019-05-25T03:36:06.181Z,14.40
2019-05-25T03:38:34.542Z,14.40
2019-05-25T03:41:02.936Z,14.40
2019-05-25T03:43:31.399Z,14.50
2019-05-25T03:45:59.786Z,14.30
2019-05-25T03:48:28.142Z,14.10
2019-05-25T03:50:57.561Z,14.10
2019-05-25T03:53:25.856Z,14.20
2019-05-25T03:56:05.184Z,14.20
2019-05-25T03:58:24.334Z,14.30
2019-05-25T04:00:52.660Z,14.40
2019-05-25T04:03:21.027Z,14.40
2019-05-25T04:05:49.434Z,14.50
2019-05-25T04:08:17.961Z,14.50
2019-05-25T04:10:46.342Z,14.60
2019-05-25T04:13:14.708Z,14.50
2019-05-25T04:15:43.086Z,14.50
2019-05-25T04:18:11.467Z,14.60
2019-05-25T04:20:39.844Z,14.70
2019-05-25T04:23:08.249Z,14.60
2019-05-25T04:25:36.597Z,14.60
2019-05-25T04:28:04.977Z,14.50
2019-05-25T04:30:33.269Z,14.60
2019-05-25T04:33:01.654Z,14.60
2019-05-25T04:35:30.092Z,14.60
2019-05-25T04:37:58.439Z,14.40
2019-05-25T04:40:26.801Z,14.30
2019-05-25T04:42:55.199Z,14.20
2019-05-25T04:45:23.569Z,14.30
2019-05-25T04:47:51.967Z,14.40
2019-05-25T04:50:20.408Z,14.50
2019-05-25T04:52:48.799Z,14.60
2019-05-25T04:55:17.171Z,14.50
2019-05-25T04:57:45.622Z,14.60
2019-05-25T05:00:13.915Z,14.60
2019-05-25T05:02:42.323Z,14.70
2019-05-25T05:05:10.699Z,14.90
2019-05-25T05:07:39.067Z,15.00
2019-05-25T05:10:07.505Z,15.10
2019-05-25T05:12:35.897Z,15.20
2019-05-25T05:15:05.605Z,15.30
2019-05-25T05:17:34.011Z,15.30
2019-05-25T05:20:02.378Z,15.30
2019-05-25T05:22:30.783Z,15.20
2019-05-25T05:24:59.150Z,15.20
2019-05-25T05:27:27.555Z,15.30
2019-05-25T05:29:55.877Z,15.40
2019-05-25T05:32:27.584Z,15.50
2019-05-25T05:34:54.273Z,15.50
2019-05-25T05:37:23.240Z,15.60
2019-05-25T05:39:52.378Z,15.60
2019-05-25T05:42:20.763Z,15.70
2019-05-25T05:44:49.132Z,15.80
2019-05-25T05:47:17.524Z,15.80
2019-05-25T05:49:45.891Z,15.70
2019-05-25T05:52:14.279Z,15.80
2019-05-25T05:54:42.723Z,15.90
2019-05-25T05:57:12.840Z,15.90
2019-05-25T05:59:41.135Z,16.00
2019-05-25T06:02:09.536Z,16.10
2019-05-25T06:04:37.887Z,16.20
2019-05-25T06:07:06.308Z,16.30
2019-05-25T06:09:34.687Z,16.40
2019-05-25T06:12:03.050Z,16.30
2019-05-25T06:14:31.451Z,16.40
2019-05-25T06:16:59.830Z,16.60
2019-05-25T06:19:28.210Z,16.90
2019-05-25T06:21:56.509Z,17.00
2019-05-25T06:24:24.894Z,17.20
2019-05-25T06:26:53.271Z,17.30
2019-05-25T06:29:21.658Z,17.40
2019-05-25T06:31:50.031Z,17.50
2019-05-25T06:34:18.424Z,17.80
2019-05-25T06:36:46.787Z,18.00
2019-05-25T06:39:15.098Z,18.20
2019-05-25T06:41:43.391Z,18.40
2019-05-25T06:44:11.800Z,18.60
2019-05-25T06:46:40.165Z,18.80
2019-05-25T06:49:08.483Z,19.00
2019-05-25T06:51:36.851Z,19.20
2019-05-25T06:54:05.252Z,19.40
2019-05-25T06:56:33.632Z,19.50
2019-05-25T06:59:02.027Z,19.60
2019-05-25T07:01:30.402Z,19.80
2019-05-25T07:03:58.799Z,19.80
2019-05-25T07:06:27.180Z,19.90
2019-05-25T07:08:55.567Z,19.90
2019-05-25T07:11:23.944Z,20.00
2019-05-25T07:13:52.339Z,20.10
2019-05-25T07:16:20.712Z,20.30
2019-05-25T07:18:49.131Z,20.50
2019-05-25T07:21:17.483Z,20.60
2019-05-25T07:23:45.870Z,20.80
2019-05-25T07:26:14.250Z,20.90
2019-05-25T07:28:42.562Z,21.00
2019-05-25T07:31:10.959Z,21.10
2019-05-25T07:33:39.370Z,21.20
2019-05-25T07:36:08.165Z,21.30
2019-05-25T07:38:36.830Z,21.30
2019-05-25T07:41:05.216Z,21.40
2019-05-25T07:43:33.605Z,21.50
2019-05-25T07:46:01.982Z,21.60
2019-05-25T07:48:30.403Z,21.70
2019-05-25T07:50:58.768Z,21.80
2019-05-25T07:53:27.431Z,21.70
2019-05-25T07:55:55.799Z,21.70
2019-05-25T07:58:24.178Z,21.80
2019-05-25T08:00:52.571Z,21.90
2019-05-25T08:03:20.951Z,21.90
2019-05-25T08:05:49.356Z,22.00
2019-05-25T08:08:17.735Z,22.10
2019-05-25T08:10:46.123Z,22.10
2019-05-25T08:13:14.516Z,22.10
2019-05-25T08:15:44.697Z,22.00
2019-05-25T08:18:13.005Z,21.90
2019-05-25T08:20:41.528Z,22.00
2019-05-25T08:23:09.878Z,22.10
2019-05-25T08:25:38.190Z,22.50
2019-05-25T08:28:06.522Z,22.70
2019-05-25T08:30:34.855Z,22.70
2019-05-25T08:33:03.232Z,22.70
2019-05-25T08:35:31.613Z,22.70
2019-05-25T08:37:59.985Z,22.90
2019-05-25T08:40:28.527Z,23.00
2019-05-25T08:42:56.869Z,23.30
2019-05-25T08:45:26.143Z,23.60
2019-05-25T08:47:56.924Z,23.70
2019-05-25T08:50:37.072Z,23.90
2019-05-25T08:52:54.675Z,24.00
2019-05-25T08:55:23.084Z,24.00
2019-05-25T08:57:51.463Z,23.90
2019-05-25T09:00:19.868Z,23.90
2019-05-25T09:02:48.223Z,24.00
2019-05-25T09:05:16.717Z,24.10
2019-05-25T09:07:45.039Z,24.30
2019-05-25T09:10:13.437Z,24.30
2019-05-25T09:12:41.811Z,24.30
2019-05-25T09:15:10.294Z,24.40
2019-05-25T09:17:38.667Z,24.40
2019-05-25T09:20:10.064Z,24.50
2019-05-25T09:22:38.440Z,24.60
2019-05-25T09:25:07.251Z,24.70
2019-05-25T09:27:35.618Z,24.80
2019-05-25T09:30:08.368Z,24.90
2019-05-25T09:32:36.723Z,25.00
2019-05-25T09:35:07.734Z,25.00
2019-05-25T09:37:36.107Z,25.10
2019-05-25T09:40:05.136Z,25.20
2019-05-25T09:42:33.517Z,25.30
2019-05-25T09:45:01.909Z,25.00
2019-05-25T09:47:30.279Z,24.90
2019-05-25T09:49:58.647Z,25.00
2019-05-25T09:52:27.031Z,25.20
2019-05-25T09:54:55.822Z,25.40
2019-05-25T09:57:24.318Z,25.60
2019-05-25T09:59:52.674Z,25.70
2019-05-25T10:02:21.075Z,25.80
2019-05-25T10:04:49.491Z,25.90
2019-05-25T10:07:17.933Z,26.00
2019-05-25T10:09:46.337Z,26.00
2019-05-25T10:12:16.275Z,26.10
2019-05-25T10:14:44.914Z,26.10
2019-05-25T10:17:13.331Z,25.80
2019-05-25T10:19:41.944Z,25.60
2019-05-25T10:22:10.575Z,25.40
2019-05-25T10:24:38.919Z,25.20
2019-05-25T10:27:07.322Z,25.00
2019-05-25T10:29:37.596Z,24.70
2019-05-25T10:32:05.747Z,24.50
2019-05-25T10:34:34.108Z,24.30
2019-05-25T10:37:03.304Z,24.10
2019-05-25T10:39:31.700Z,23.90
2019-05-25T10:42:00.100Z,23.80
2019-05-25T10:44:28.473Z,23.60
2019-05-25T10:46:56.869Z,23.50
2019-05-25T10:49:25.252Z,23.30
2019-05-25T10:51:53.715Z,23.20
2019-05-25T10:54:22.180Z,23.10
2019-05-25T10:56:50.520Z,22.90
2019-05-25T10:59:19.275Z,22.80
2019-05-25T11:01:47.680Z,22.60
2019-05-25T11:04:16.033Z,22.50
2019-05-25T11:06:44.461Z,22.40
2019-05-25T11:09:12.990Z,22.30
2019-05-25T11:11:41.441Z,22.20
2019-05-25T11:14:09.785Z,22.20
2019-05-25T11:16:38.209Z,22.10
2019-05-25T11:19:06.581Z,22.10
2019-05-25T11:21:35.548Z,22.00
2019-05-25T11:24:04.188Z,22.00
2019-05-25T11:26:33.323Z,22.10
2019-05-25T11:29:02.413Z,22.10
2019-05-25T11:31:33.444Z,22.30
2019-05-25T11:34:01.866Z,22.40
2019-05-25T11:36:30.882Z,22.60
2019-05-25T11:38:59.603Z,22.70
2019-05-25T11:41:27.969Z,23.00
2019-05-25T11:43:56.674Z,23.10
2019-05-25T11:46:39.872Z,23.20
2019-05-25T11:49:22.040Z,23.20
2019-05-25T11:51:42.435Z,23.30
2019-05-25T11:54:11.438Z,23.60
2019-05-25T11:56:40.026Z,23.90
2019-05-25T11:59:08.490Z,24.40
2019-05-25T12:01:36.920Z,24.60
2019-05-25T12:04:05.266Z,24.80
2019-05-25T12:06:33.668Z,24.80
2019-05-25T12:09:02.039Z,24.80
2019-05-25T12:11:30.419Z,24.80
2019-05-25T12:13:58.836Z,24.80
2019-05-25T12:16:27.227Z,24.70
2019-05-25T12:18:55.578Z,24.80
2019-05-25T12:21:23.971Z,24.90
2019-05-25T12:23:52.330Z,25.00
2019-05-25T12:26:20.652Z,25.20
2019-05-25T12:28:49.110Z,25.20
2019-05-25T12:31:17.436Z,25.10
2019-05-25T12:33:45.807Z,25.00
2019-05-25T12:36:14.255Z,24.90
2019-05-25T12:38:42.643Z,25.00
2019-05-25T12:41:11.007Z,25.20
2019-05-25T12:43:39.876Z,25.40
2019-05-25T12:46:08.224Z,25.60
2019-05-25T12:48:36.634Z,25.80
2019-05-25T12:51:05.027Z,25.90
2019-05-25T12:53:33.424Z,25.90
2019-05-25T12:56:05.582Z,25.90
2019-05-25T12:58:34.179Z,25.90
2019-05-25T13:01:03.507Z,25.90
2019-05-25T13:03:31.938Z,25.80
2019-05-25T13:06:00.535Z,25.80
2019-05-25T13:08:28.923Z,25.90
2019-05-25T13:10:57.675Z,26.00
2019-05-25T13:13:26.196Z,26.10
2019-05-25T13:15:54.615Z,26.20
2019-05-25T13:18:23.010Z,26.10
2019-05-25T13:20:52.537Z,26.10
2019-05-25T13:23:20.923Z,26.10
2019-05-25T13:25:49.312Z,26.00
2019-05-25T13:28:17.951Z,26.10
2019-05-25T13:30:46.334Z,26.10
2019-05-25T13:33:14.767Z,26.30
2019-05-25T13:35:43.118Z,26.30
2019-05-25T13:38:11.680Z,26.30
2019-05-25T13:40:40.041Z,26.00
2019-05-25T13:43:08.430Z,25.70
2019-05-25T13:45:37.028Z,25.60
2019-05-25T13:48:05.615Z,25.40
2019-05-25T13:50:33.979Z,25.50
2019-05-25T13:53:02.371Z,25.60
2019-05-25T13:55:31.244Z,25.40
2019-05-25T13:57:59.687Z,25.30
2019-05-25T14:00:28.059Z,25.10
2019-05-25T14:02:56.476Z,24.90
2019-05-25T14:05:25.237Z,24.70
2019-05-25T14:07:54.100Z,24.60
2019-05-25T14:10:22.446Z,24.50
2019-05-25T14:12:50.835Z,24.40
2019-05-25T14:15:19.507Z,24.30
2019-05-25T14:17:47.931Z,24.30
2019-05-25T14:20:16.551Z,24.10
2019-05-25T14:22:44.998Z,24.10
2019-05-25T14:25:13.433Z,23.80
2019-05-25T14:27:41.810Z,23.60
2019-05-25T14:30:10.187Z,23.40
2019-05-25T14:32:38.617Z,23.20
2019-05-25T14:35:07.395Z,23.00
2019-05-25T14:37:35.767Z,22.80
2019-05-25T14:40:06.294Z,22.60
2019-05-25T14:42:34.663Z,22.40
2019-05-25T14:45:04.105Z,22.30
2019-05-25T14:47:32.464Z,22.20
2019-05-25T14:50:00.868Z,22.00
2019-05-25T14:52:29.238Z,21.90
2019-05-25T14:54:57.555Z,21.70
2019-05-25T14:57:26.009Z,21.60
2019-05-25T14:59:54.432Z,21.50
2019-05-25T15:02:22.805Z,21.30
2019-05-25T15:04:51.188Z,21.10
2019-05-25T15:07:19.567Z,20.90
2019-05-25T15:09:47.941Z,20.90
2019-05-25T15:12:16.237Z,20.80
2019-05-25T15:14:44.620Z,20.70
2019-05-25T15:17:13.036Z,20.50
2019-05-25T15:19:41.470Z,20.40
2019-05-25T15:22:10.310Z,20.40
2019-05-25T15:24:39.135Z,20.30
2019-05-25T15:27:07.868Z,20.30
2019-05-25T15:29:36.704Z,20.20
2019-05-25T15:32:18.694Z,20.00
2019-05-25T15:34:35.237Z,19.80
2019-05-25T15:37:06.021Z,19.50
2019-05-25T15:39:34.471Z,18.90
2019-05-25T15:42:02.915Z,18.30
2019-05-25T15:44:31.307Z,18.10
2019-05-25T15:46:59.678Z,17.80
2019-05-25T15:49:33.234Z,17.80
2019-05-25T15:51:58.084Z,17.90
2019-05-25T15:54:26.544Z,18.10
2019-05-25T15:56:54.962Z,18.10
2019-05-25T15:59:23.844Z,18.10
2019-05-25T16:01:52.749Z,18.00
2019-05-25T16:04:23.395Z,17.90
2019-05-25T16:06:51.877Z,17.80
2019-05-25T16:09:20.250Z,17.50
2019-05-25T16:11:48.607Z,17.30
2019-05-25T16:14:17.248Z,17.00
2019-05-25T16:16:45.726Z,17.00
2019-05-25T16:19:14.846Z,16.90
2019-05-25T16:21:43.183Z,16.70
2019-05-25T16:24:11.555Z,16.70
2019-05-25T16:26:46.027Z,16.70
2019-05-25T16:29:10.406Z,16.90
2019-05-25T16:31:38.781Z,16.90
2019-05-25T16:34:07.347Z,16.70
2019-05-25T16:36:35.943Z,16.70
2019-05-25T16:39:06.161Z,16.60
2019-05-25T16:41:34.614Z,16.60
2019-05-25T16:44:03.136Z,16.40
2019-05-25T16:46:31.707Z,16.40
2019-05-25T16:49:00.096Z,16.50
2019-05-25T16:51:28.495Z,16.60
2019-05-25T16:53:57.327Z,16.70
2019-05-25T16:56:26.493Z,16.70
2019-05-25T16:58:55.031Z,16.60
2019-05-25T17:01:23.499Z,16.60
2019-05-25T17:03:51.887Z,16.70
2019-05-25T17:06:20.589Z,17.00
2019-05-25T17:08:48.939Z,16.90
2019-05-25T17:11:17.313Z,16.90
2019-05-25T17:13:45.906Z,16.90
2019-05-25T17:16:33.767Z,16.80
2019-05-25T17:19:02.208Z,16.90
2019-05-25T17:21:30.643Z,17.00
2019-05-25T17:23:59.127Z,17.00
2019-05-25T17:26:27.526Z,17.10
2019-05-25T17:28:55.878Z,17.30
2019-05-25T17:31:24.291Z,17.40
2019-05-25T17:33:52.874Z,17.50
2019-05-25T17:36:21.277Z,17.50
2019-05-25T17:38:49.720Z,17.60
2019-05-25T17:41:18.109Z,17.70
2019-05-25T17:43:46.477Z,17.80
2019-05-25T17:46:14.886Z,17.90
2019-05-25T17:48:43.397Z,17.90
2019-05-25T17:51:11.799Z,18.00
2019-05-25T17:53:40.166Z,17.90
2019-05-25T17:56:08.581Z,17.90
2019-05-25T17:58:37.148Z,17.90
2019-05-25T18:01:05.549Z,17.90
2019-05-25T18:03:33.967Z,17.90
2019-05-25T18:06:03.597Z,17.90
2019-05-25T18:08:32.292Z,18.00
2019-05-25T18:11:02.054Z,18.00
2019-05-25T18:13:31.720Z,18.10
2019-05-25T18:16:00.181Z,17.90
2019-05-25T18:18:28.549Z,17.60
2019-05-25T18:20:56.958Z,17.40
2019-05-25T18:23:25.319Z,17.40
2019-05-25T18:25:53.763Z,17.50
2019-05-25T18:28:22.221Z,17.50
2019-05-25T18:30:50.692Z,17.50
2019-05-25T18:33:20.055Z,17.60
2019-05-25T18:35:48.399Z,17.60
2019-05-25T18:38:16.782Z,17.50
2019-05-25T18:40:45.231Z,17.50
2019-05-25T18:43:13.794Z,17.40
2019-05-25T18:45:42.182Z,17.20
2019-05-25T18:48:10.560Z,17.10
2019-05-25T18:50:38.994Z,16.90
2019-05-25T18:53:07.402Z,17.00
2019-05-25T18:55:35.765Z,17.10
2019-05-25T18:58:04.580Z,17.10
2019-05-25T19:00:32.945Z,17.10
2019-05-25T19:03:01.351Z,17.10
2019-05-25T19:05:29.717Z,17.10
2019-05-25T19:07:58.105Z,17.10
2019-05-25T19:10:26.991Z,17.00
2019-05-25T19:12:55.377Z,16.80
2019-05-25T19:15:23.816Z,16.60
2019-05-25T19:17:52.207Z,16.30
2019-05-25T19:20:21.362Z,16.20
2019-05-25T19:22:49.875Z,16.00
2019-05-25T19:25:20.289Z,16.00
2019-05-25T19:27:48.702Z,16.00
2019-05-25T19:30:17.174Z,16.00
2019-05-25T19:32:45.576Z,15.90
2019-05-25T19:35:13.955Z,15.60
2019-05-25T19:37:42.761Z,15.40
2019-05-25T19:40:11.219Z,15.30
2019-05-25T19:42:39.612Z,15.40
2019-05-25T19:45:08.229Z,15.50
2019-05-25T19:47:36.622Z,15.50
2019-05-25T19:50:07.757Z,15.50
2019-05-25T19:52:36.227Z,15.50
2019-05-25T19:55:06.324Z,15.40
2019-05-25T19:57:34.714Z,15.40
2019-05-25T20:00:04.723Z,15.20
2019-05-25T20:02:33.113Z,15.30
2019-05-25T20:05:15.093Z,15.20
2019-05-25T20:07:31.530Z,15.10
2019-05-25T20:09:59.907Z,15.20
2019-05-25T20:12:28.345Z,15.00
2019-05-25T20:14:56.747Z,14.90
2019-05-25T20:17:25.124Z,14.80
2019-05-25T20:19:53.505Z,14.80
2019-05-25T20:22:21.807Z,14.90
2019-05-25T20:24:50.395Z,14.90
2019-05-25T20:27:18.786Z,14.90
2019-05-25T20:29:47.182Z,14.80
2019-05-25T20:32:15.559Z,14.90
2019-05-25T20:34:45.797Z,14.80
2019-05-25T20:37:13.990Z,14.90
2019-05-25T20:39:42.403Z,14.80
2019-05-25T20:42:14.265Z,14.70
2019-05-25T20:44:40.831Z,14.80
2019-05-25T20:47:09.222Z,14.80
2019-05-25T20:49:37.622Z,14.90
2019-05-25T20:52:06.009Z,14.80
2019-05-25T20:54:34.418Z,14.90
2019-05-25T20:57:02.818Z,15.00
2019-05-25T20:59:31.212Z,15.10
2019-05-25T21:01:59.590Z,15.00
2019-05-25T21:04:27.994Z,14.60
2019-05-25T21:06:56.447Z,14.40
2019-05-25T21:09:24.859Z,14.50
2019-05-25T21:11:55.781Z,14.50
2019-05-25T21:14:23.288Z,14.40
2019-05-25T21:16:51.658Z,14.30
2019-05-25T21:19:20.043Z,14.40
2019-05-25T21:21:48.425Z,14.40
2019-05-25T21:24:16.839Z,14.40
2019-05-25T21:26:45.209Z,14.20
2019-05-25T21:29:13.564Z,14.30
2019-05-25T21:31:41.927Z,14.20
2019-05-25T21:34:10.334Z,14.30
2019-05-25T21:36:38.717Z,14.30
2019-05-25T21:39:07.347Z,14.40
2019-05-25T21:41:35.727Z,14.50
2019-05-25T21:44:04.187Z,14.40
2019-05-25T21:46:32.586Z,14.00
2019-05-25T21:49:00.949Z,14.10
2019-05-25T21:51:29.327Z,14.10
2019-05-25T21:53:57.698Z,13.70
2019-05-25T21:56:26.098Z,13.90
2019-05-25T21:58:54.467Z,13.90
2019-05-25T22:01:22.862Z,13.90
2019-05-25T22:03:51.362Z,14.00
2019-05-25T22:06:24.419Z,14.00
2019-05-25T22:08:49.944Z,14.10
2019-05-25T22:11:18.322Z,14.10
2019-05-25T22:13:46.690Z,14.10
2019-05-25T22:16:15.089Z,14.10
2019-05-25T22:18:43.523Z,14.20
2019-05-25T22:21:11.917Z,14.20
2019-05-25T22:23:40.293Z,14.20
2019-05-25T22:26:08.675Z,13.80
2019-05-25T22:28:44.760Z,13.80
2019-05-25T22:31:07.090Z,13.40
2019-05-25T22:33:35.476Z,13.50
2019-05-25T22:36:03.871Z,13.40
2019-05-25T22:38:32.235Z,13.50
2019-05-25T22:41:00.627Z,13.30
2019-05-25T22:43:28.994Z,13.30
2019-05-25T22:45:57.326Z,13.30
2019-05-25T22:48:25.632Z,13.40
2019-05-25T22:50:54.099Z,13.50
2019-05-25T22:53:22.474Z,13.60
2019-05-25T22:55:50.863Z,13.60
2019-05-25T22:58:19.254Z,13.70
2019-05-25T23:00:47.633Z,13.70
2019-05-25T23:03:16.003Z,13.70
2019-05-25T23:05:44.400Z,13.50
2019-05-25T23:08:12.771Z,13.30
2019-05-25T23:10:41.176Z,13.40
2019-05-25T23:13:09.548Z,13.30
2019-05-25T23:15:37.957Z,13.50
2019-05-25T23:18:06.338Z,13.50
2019-05-25T23:20:36.606Z,13.30
2019-05-25T23:23:04.743Z,13.30
2019-05-25T23:25:34.090Z,13.30
2019-05-25T23:28:02.454Z,13.50
2019-05-25T23:30:30.850Z,13.50
2019-05-25T23:32:59.217Z,13.50
2019-05-25T23:35:28.873Z,13.50
2019-05-25T23:37:57.239Z,13.30
2019-05-25T23:40:25.631Z,13.20
2019-05-25T23:42:54.020Z,13.30
2019-05-25T23:45:22.400Z,13.30
2019-05-25T23:47:50.786Z,13.10
2019-05-25T23:50:19.327Z,13.10
2019-05-25T23:52:47.781Z,13.10
2019-05-25T23:55:16.193Z,13.10
2019-05-25T23:57:44.579Z,13.20
